createdAt,value
2022-11-03T00:00:22.183Z,1006.16
2022-11-03T00:01:22.500Z,1006.12
2022-11-03T00:02:22.541Z,1006.15
2022-11-03T00:03:23.000Z,1006.17
2022-11-03T00:04:22.945Z,1006.11
2022-11-03T00:05:22.192Z,1006.15
2022-11-03T00:06:22.702Z,1006.17
2022-11-03T00:07:22.259Z,1006.13
2022-11-03T00:08:22.566Z,1006.13
2022-11-03T00:09:22.398Z,1006.13
2022-11-03T00:10:22.103Z,1006.11
2022-11-03T00:11:22.416Z,1006.13
2022-11-03T00:12:22.082Z,1006.18
2022-11-03T00:13:22.341Z,1006.16
2022-11-03T00:14:22.074Z,1006.11
2022-11-03T00:15:22.353Z,1006.16
2022-11-03T00:16:22.043Z,1006.13
2022-11-03T00:17:22.128Z,1006.11
2022-11-03T00:18:22.259Z,1006.11
2022-11-03T00:19:22.035Z,1006.09
2022-11-03T00:20:22.050Z,1006.08
2022-11-03T00:21:22.161Z,1006.05
2022-11-03T00:22:22.055Z,1006.03
2022-11-03T00:23:22.065Z,1005.98
2022-11-03T00:24:22.170Z,1005.94
2022-11-03T00:25:22.355Z,1005.93
2022-11-03T00:26:22.060Z,1005.91
2022-11-03T00:27:22.053Z,1005.88
2022-11-03T00:28:22.294Z,1005.89
2022-11-03T00:29:22.049Z,1005.79
2022-11-03T00:30:22.044Z,1005.81
2022-11-03T00:31:22.049Z,1005.78
2022-11-03T00:32:22.056Z,1005.75
2022-11-03T00:33:22.075Z,1005.69
2022-11-03T00:34:22.045Z,1005.67
2022-11-03T00:35:22.053Z,1005.65
2022-11-03T00:36:22.050Z,1005.67
2022-11-03T00:37:22.052Z,1005.69
2022-11-03T00:38:22.066Z,1005.63
2022-11-03T00:39:22.060Z,1005.66
2022-11-03T00:40:22.183Z,1005.65
2022-11-03T00:41:22.037Z,1005.64
2022-11-03T00:42:22.033Z,1005.68
2022-11-03T00:43:22.054Z,1005.69
2022-11-03T00:44:22.057Z,1005.67
2022-11-03T00:45:22.052Z,1005.66
2022-11-03T00:46:22.073Z,1005.7
2022-11-03T00:47:26.058Z,1005.67
2022-11-03T00:48:22.041Z,1005.67
2022-11-03T00:49:22.069Z,1005.66
2022-11-03T00:50:22.050Z,1005.66
2022-11-03T00:51:22.135Z,1005.69
2022-11-03T00:52:22.047Z,1005.71
2022-11-03T00:53:22.040Z,1005.68
2022-11-03T00:54:22.066Z,1005.7
2022-11-03T00:55:22.045Z,1005.64
2022-11-03T00:56:22.054Z,1005.59
2022-11-03T00:57:22.049Z,1005.67
2022-11-03T00:58:22.061Z,1005.63
2022-11-03T00:59:22.129Z,1005.6
2022-11-03T01:00:22.055Z,1005.64
2022-11-03T01:01:22.202Z,1005.66
2022-11-03T01:02:22.144Z,1005.65
2022-11-03T01:03:22.055Z,1005.62
2022-11-03T01:04:22.079Z,1005.69
2022-11-03T01:05:22.046Z,1005.65
2022-11-03T01:06:22.043Z,1005.62
2022-11-03T01:07:22.056Z,1005.62
2022-11-03T01:08:28.083Z,1005.67
2022-11-03T01:09:22.058Z,1005.68
2022-11-03T01:10:22.045Z,1005.64
2022-11-03T01:11:22.326Z,1005.64
2022-11-03T01:12:22.052Z,1005.62
2022-11-03T01:13:22.073Z,1005.62
2022-11-03T01:14:22.149Z,1005.6
2022-11-03T01:15:22.088Z,1005.6
2022-11-03T01:16:22.041Z,1005.63
2022-11-03T01:17:22.047Z,1005.67
2022-11-03T01:18:22.057Z,1005.65
2022-11-03T01:19:22.070Z,1005.67
2022-11-03T01:20:22.065Z,1005.62
2022-11-03T01:21:22.069Z,1005.65
2022-11-03T01:22:22.065Z,1005.64
2022-11-03T01:23:22.361Z,1005.64
2022-11-03T01:24:22.089Z,1005.63
2022-11-03T01:25:22.081Z,1005.66
2022-11-03T01:26:22.156Z,1005.61
2022-11-03T01:27:22.068Z,1005.59
2022-11-03T01:28:22.161Z,1005.61
2022-11-03T01:29:22.064Z,1005.62
2022-11-03T01:30:22.100Z,1005.54
2022-11-03T01:31:22.442Z,1005.6
2022-11-03T01:32:22.716Z,1005.59
2022-11-03T01:33:23.076Z,1005.55
2022-11-03T01:34:22.639Z,1005.56
2022-11-03T01:35:22.966Z,1005.59
2022-11-03T01:36:23.152Z,1005.55
2022-11-03T01:37:22.477Z,1005.57
2022-11-03T01:38:22.828Z,1005.59
2022-11-03T01:39:22.042Z,1005.57
2022-11-03T01:40:22.409Z,1005.53
2022-11-03T01:41:22.627Z,1005.52
2022-11-03T01:42:22.073Z,1005.5
2022-11-03T01:43:22.931Z,1005.51
2022-11-03T01:44:22.608Z,1005.53
2022-11-03T01:45:22.049Z,1005.5
2022-11-03T01:46:22.306Z,1005.51
2022-11-03T01:47:22.043Z,1005.5
2022-11-03T01:48:22.056Z,1005.46
2022-11-03T01:49:22.061Z,1005.46
2022-11-03T01:50:22.053Z,1005.46
2022-11-03T01:51:22.082Z,1005.43
2022-11-03T01:52:22.049Z,1005.38
2022-11-03T01:53:22.058Z,1005.4
2022-11-03T01:54:22.046Z,1005.37
2022-11-03T01:55:22.050Z,1005.35
2022-11-03T01:56:22.086Z,1005.31
2022-11-03T01:57:22.135Z,1005.3
2022-11-03T01:58:22.056Z,1005.24
2022-11-03T01:59:22.057Z,1005.21
2022-11-03T02:00:22.062Z,1005.22
2022-11-03T02:01:22.185Z,1005.29
2022-11-03T02:02:22.109Z,1005.26
2022-11-03T02:03:22.099Z,1005.24
2022-11-03T02:04:22.053Z,1005.21
2022-11-03T02:05:22.044Z,1005.22
2022-11-03T02:06:22.074Z,1005.19
2022-11-03T02:07:22.051Z,1005.21
2022-11-03T02:08:22.055Z,1005.21
2022-11-03T02:09:22.053Z,1005.22
2022-11-03T02:10:22.053Z,1005.15
2022-11-03T02:11:22.061Z,1005.17
2022-11-03T02:12:22.127Z,1005.14
2022-11-03T02:13:22.333Z,1005.1
2022-11-03T02:14:22.056Z,1005.12
2022-11-03T02:15:22.043Z,1005.1
2022-11-03T02:16:22.036Z,1005.09
2022-11-03T02:17:22.043Z,1005.1
2022-11-03T02:18:22.053Z,1005.1
2022-11-03T02:19:22.051Z,1005.09
2022-11-03T02:20:22.043Z,1005.02
2022-11-03T02:21:22.041Z,1005.03
2022-11-03T02:22:22.157Z,1004.98
2022-11-03T02:23:22.054Z,1004.98
2022-11-03T02:24:22.051Z,1005.01
2022-11-03T02:25:22.037Z,1004.96
2022-11-03T02:26:22.038Z,1004.91
2022-11-03T02:27:22.056Z,1004.92
2022-11-03T02:28:22.224Z,1004.9
2022-11-03T02:29:22.048Z,1004.98
2022-11-03T02:30:22.049Z,1004.92
2022-11-03T02:31:22.092Z,1004.93
2022-11-03T02:32:22.046Z,1004.9
2022-11-03T02:33:22.079Z,1004.87
2022-11-03T02:34:22.173Z,1004.83
2022-11-03T02:35:22.334Z,1004.76
2022-11-03T02:36:22.042Z,1004.76
2022-11-03T02:37:22.044Z,1004.8
2022-11-03T02:38:22.213Z,1004.71
2022-11-03T02:39:22.045Z,1004.74
2022-11-03T02:40:22.037Z,1004.66
2022-11-03T02:41:22.051Z,1004.75
2022-11-03T02:42:22.050Z,1004.68
2022-11-03T02:43:22.060Z,1004.66
2022-11-03T02:44:22.038Z,1004.62
2022-11-03T02:45:22.057Z,1004.57
2022-11-03T02:46:22.050Z,1004.58
2022-11-03T02:47:22.045Z,1004.57
2022-11-03T02:48:22.048Z,1004.56
2022-11-03T02:49:22.060Z,1004.55
2022-11-03T02:50:22.043Z,1004.52
2022-11-03T02:51:22.039Z,1004.49
2022-11-03T02:52:22.055Z,1004.53
2022-11-03T02:53:22.063Z,1004.46
2022-11-03T02:54:22.042Z,1004.46
2022-11-03T02:55:22.046Z,1004.45
2022-11-03T02:56:22.053Z,1004.42
2022-11-03T02:57:22.180Z,1004.47
2022-11-03T02:58:22.280Z,1004.44
2022-11-03T02:59:22.034Z,1004.44
2022-11-03T03:00:22.276Z,1004.41
2022-11-03T03:01:22.503Z,1004.42
2022-11-03T03:02:22.108Z,1004.34
2022-11-03T03:03:22.164Z,1004.38
2022-11-03T03:04:22.104Z,1004.4
2022-11-03T03:05:22.323Z,1004.36
2022-11-03T03:06:22.205Z,1004.32
2022-11-03T03:07:22.366Z,1004.27
2022-11-03T03:08:22.682Z,1004.3
2022-11-03T03:09:22.568Z,1004.24
2022-11-03T03:10:22.369Z,1004.23
2022-11-03T03:11:22.615Z,1004.21
2022-11-03T03:12:22.044Z,1004.22
2022-11-03T03:13:22.255Z,1004.23
2022-11-03T03:14:22.572Z,1004.19
2022-11-03T03:15:22.368Z,1004.15
2022-11-03T03:16:22.163Z,1004.24
2022-11-03T03:17:22.457Z,1004.25
2022-11-03T03:18:22.252Z,1004.21
2022-11-03T03:19:22.142Z,1004.14
2022-11-03T03:20:22.342Z,1004.17
2022-11-03T03:21:22.387Z,1004.12
2022-11-03T03:22:22.043Z,1004.12
2022-11-03T03:23:22.201Z,1004.17
2022-11-03T03:24:22.370Z,1004.09
2022-11-03T03:25:22.038Z,1004.06
2022-11-03T03:26:22.076Z,1004.02
2022-11-03T03:27:22.383Z,1004.04
2022-11-03T03:28:22.046Z,1004.03
2022-11-03T03:29:22.260Z,1004.02
2022-11-03T03:30:22.227Z,1004.01
2022-11-03T03:31:22.061Z,1004.05
2022-11-03T03:32:22.096Z,1003.98
2022-11-03T03:33:22.361Z,1003.99
2022-11-03T03:34:34.954Z,1003.99
2022-11-03T03:35:22.043Z,1003.94
2022-11-03T03:36:22.191Z,1004.02
2022-11-03T03:37:22.042Z,1003.99
2022-11-03T03:38:22.049Z,1003.96
2022-11-03T03:39:22.110Z,1003.92
2022-11-03T03:40:22.346Z,1003.86
2022-11-03T03:41:22.333Z,1003.89
2022-11-03T03:42:22.127Z,1003.91
2022-11-03T03:43:22.047Z,1003.86
2022-11-03T03:44:22.062Z,1003.88
2022-11-03T03:45:22.057Z,1003.84
2022-11-03T03:46:22.059Z,1003.82
2022-11-03T03:47:22.045Z,1003.85
2022-11-03T03:48:22.048Z,1003.83
2022-11-03T03:49:22.051Z,1003.84
2022-11-03T03:50:22.070Z,1003.89
2022-11-03T03:51:22.052Z,1003.78
2022-11-03T03:52:22.050Z,1003.8
2022-11-03T03:53:22.111Z,1003.81
2022-11-03T03:54:22.139Z,1003.8
2022-11-03T03:55:22.082Z,1003.84
2022-11-03T03:56:22.057Z,1003.72
2022-11-03T03:57:22.044Z,1003.72
2022-11-03T03:58:22.048Z,1003.7
2022-11-03T03:59:22.044Z,1003.74
2022-11-03T04:00:22.038Z,1003.74
2022-11-03T04:01:22.136Z,1003.73
2022-11-03T04:02:22.133Z,1003.7
2022-11-03T04:03:22.053Z,1003.76
2022-11-03T04:04:22.089Z,1003.74
2022-11-03T04:05:22.157Z,1003.7
2022-11-03T04:06:22.059Z,1003.68
2022-11-03T04:07:22.129Z,1003.69
2022-11-03T04:08:22.043Z,1003.7
2022-11-03T04:09:22.037Z,1003.73
2022-11-03T04:10:22.038Z,1003.79
2022-11-03T04:11:22.049Z,1003.7
2022-11-03T04:12:22.049Z,1003.68
2022-11-03T04:13:22.067Z,1003.7
2022-11-03T04:14:22.045Z,1003.68
2022-11-03T04:15:22.036Z,1003.72
2022-11-03T04:16:22.042Z,1003.68
2022-11-03T04:17:22.069Z,1003.67
2022-11-03T04:18:22.053Z,1003.68
2022-11-03T04:19:22.157Z,1003.68
2022-11-03T04:20:22.044Z,1003.72
2022-11-03T04:21:22.040Z,1003.66
2022-11-03T04:22:22.044Z,1003.55
2022-11-03T04:23:22.047Z,1003.66
2022-11-03T04:24:22.047Z,1003.65
2022-11-03T04:25:22.051Z,1003.65
2022-11-03T04:26:22.063Z,1003.68
2022-11-03T04:27:22.181Z,1003.66
2022-11-03T04:28:22.036Z,1003.61
2022-11-03T04:29:22.038Z,1003.65
2022-11-03T04:30:22.076Z,1003.61
2022-11-03T04:31:22.046Z,1003.61
2022-11-03T04:32:22.056Z,1003.6
2022-11-03T04:33:22.040Z,1003.61
2022-11-03T04:34:22.038Z,1003.57
2022-11-03T04:35:22.054Z,1003.57
2022-11-03T04:36:22.043Z,1003.57
2022-11-03T04:37:22.049Z,1003.56
2022-11-03T04:38:22.061Z,1003.55
2022-11-03T04:39:22.172Z,1003.59
2022-11-03T04:40:22.057Z,1003.54
2022-11-03T04:41:22.102Z,1003.56
2022-11-03T04:42:22.040Z,1003.52
2022-11-03T04:43:22.039Z,1003.51
2022-11-03T04:44:22.039Z,1003.5
2022-11-03T04:45:22.045Z,1003.49
2022-11-03T04:46:22.339Z,1003.46
2022-11-03T04:47:22.619Z,1003.44
2022-11-03T04:48:23.029Z,1003.46
2022-11-03T04:49:22.701Z,1003.46
2022-11-03T04:50:23.201Z,1003.46
2022-11-03T04:51:22.389Z,1003.52
2022-11-03T04:52:22.639Z,1003.48
2022-11-03T04:53:22.012Z,1003.48
2022-11-03T04:54:22.287Z,1003.46
2022-11-03T04:55:22.531Z,1003.39
2022-11-03T04:56:22.523Z,1003.39
2022-11-03T04:57:22.891Z,1003.36
2022-11-03T04:58:22.559Z,1003.33
2022-11-03T04:59:22.045Z,1003.32
2022-11-03T05:00:22.280Z,1003.31
2022-11-03T05:01:28.472Z,1003.32
2022-11-03T05:02:22.096Z,1003.3
2022-11-03T05:03:22.045Z,1003.31
2022-11-03T05:04:22.057Z,1003.27
2022-11-03T05:05:22.063Z,1003.28
2022-11-03T05:06:22.055Z,1003.31
2022-11-03T05:07:22.053Z,1003.24
2022-11-03T05:08:22.053Z,1003.19
2022-11-03T05:09:22.045Z,1003.19
2022-11-03T05:10:22.071Z,1003.21
2022-11-03T05:11:22.070Z,1003.19
2022-11-03T05:12:22.055Z,1003.18
2022-11-03T05:13:22.079Z,1003.2
2022-11-03T05:14:22.076Z,1003.21
2022-11-03T05:15:22.095Z,1003.18
2022-11-03T05:16:22.034Z,1003.19
2022-11-03T05:17:22.062Z,1003.2
2022-11-03T05:18:22.047Z,1003.17
2022-11-03T05:19:22.052Z,1003.17
2022-11-03T05:20:22.063Z,1003.15
2022-11-03T05:21:22.227Z,1003.15
2022-11-03T05:22:22.258Z,1003.11
2022-11-03T05:23:22.259Z,1003.11
2022-11-03T05:24:22.430Z,1003.1
2022-11-03T05:25:22.298Z,1003.06
2022-11-03T05:26:22.745Z,1003.05
2022-11-03T05:27:22.248Z,1003.04
2022-11-03T05:28:22.545Z,1002.95
2022-11-03T05:29:22.289Z,1003.04
2022-11-03T05:30:22.598Z,1002.97
2022-11-03T05:31:22.494Z,1002.91
2022-11-03T05:32:22.813Z,1002.9
2022-11-03T05:33:22.326Z,1002.92
2022-11-03T05:34:22.103Z,1002.87
2022-11-03T05:35:22.398Z,1002.85
2022-11-03T05:36:22.222Z,1002.84
2022-11-03T05:37:27.457Z,1002.82
2022-11-03T05:38:22.287Z,1002.75
2022-11-03T05:39:22.051Z,1002.78
2022-11-03T05:40:22.049Z,1002.8
2022-11-03T05:41:22.073Z,1002.82
2022-11-03T05:42:22.049Z,1002.79
2022-11-03T05:43:22.058Z,1002.74
2022-11-03T05:44:22.351Z,1002.76
2022-11-03T05:45:22.066Z,1002.75
2022-11-03T05:46:22.079Z,1002.75
2022-11-03T05:47:22.325Z,1002.67
2022-11-03T05:48:22.064Z,1002.7
2022-11-03T05:49:22.281Z,1002.62
2022-11-03T05:50:22.232Z,1002.65
2022-11-03T05:51:22.063Z,1002.74
2022-11-03T05:52:22.044Z,1002.61
2022-11-03T05:53:22.131Z,1002.61
2022-11-03T05:54:23.046Z,1002.63
2022-11-03T05:55:22.042Z,1002.62
2022-11-03T05:56:22.080Z,1002.6
2022-11-03T05:57:22.044Z,1002.59
2022-11-03T05:58:22.047Z,1002.6
2022-11-03T05:59:22.046Z,1002.57
2022-11-03T06:00:22.155Z,1002.58
2022-11-03T06:01:22.171Z,1002.58
2022-11-03T06:02:22.097Z,1002.56
2022-11-03T06:03:22.051Z,1002.55
2022-11-03T06:04:22.043Z,1002.6
2022-11-03T06:05:22.042Z,1002.55
2022-11-03T06:06:22.080Z,1002.57
2022-11-03T06:07:22.048Z,1002.53
2022-11-03T06:08:22.058Z,1002.47
2022-11-03T06:09:22.038Z,1002.48
2022-11-03T06:10:22.167Z,1002.47
2022-11-03T06:11:22.068Z,1002.47
2022-11-03T06:12:22.145Z,1002.51
2022-11-03T06:13:22.044Z,1002.45
2022-11-03T06:14:26.068Z,1002.47
2022-11-03T06:15:22.034Z,1002.47
2022-11-03T06:16:22.036Z,1002.45
2022-11-03T06:17:22.047Z,1002.43
2022-11-03T06:18:22.067Z,1002.38
2022-11-03T06:19:22.060Z,1002.47
2022-11-03T06:20:22.070Z,1002.36
2022-11-03T06:21:22.044Z,1002.33
2022-11-03T06:22:22.046Z,1002.34
2022-11-03T06:23:22.152Z,1002.33
2022-11-03T06:24:22.071Z,1002.31
2022-11-03T06:25:22.044Z,1002.29
2022-11-03T06:26:22.052Z,1002.26
2022-11-03T06:27:22.040Z,1002.33
2022-11-03T06:28:22.118Z,1002.28
2022-11-03T06:29:22.062Z,1002.29
2022-11-03T06:30:22.040Z,1002.31
2022-11-03T06:31:25.060Z,1002.23
2022-11-03T06:32:22.284Z,1002.25
2022-11-03T06:33:22.197Z,1002.25
2022-11-03T06:34:22.055Z,1002.26
2022-11-03T06:35:22.304Z,1002.18
2022-11-03T06:36:22.123Z,1002.14
2022-11-03T06:37:22.053Z,1002.14
2022-11-03T06:38:22.198Z,1002.1
2022-11-03T06:39:22.493Z,1002.11
2022-11-03T06:40:22.047Z,1002.09
2022-11-03T06:41:22.048Z,1002.07
2022-11-03T06:42:23.141Z,1002.01
2022-11-03T06:43:22.541Z,1002.02
2022-11-03T06:44:22.165Z,1002.04
2022-11-03T06:45:22.137Z,1001.98
2022-11-03T06:46:22.403Z,1001.93
2022-11-03T06:47:22.057Z,1001.97
2022-11-03T06:48:22.286Z,1002.01
2022-11-03T06:49:22.063Z,1001.97
2022-11-03T06:50:22.332Z,1001.91
2022-11-03T06:51:22.041Z,1001.95
2022-11-03T06:52:22.054Z,1001.91
2022-11-03T06:53:22.218Z,1001.86
2022-11-03T06:54:22.046Z,1001.86
2022-11-03T06:55:22.054Z,1001.86
2022-11-03T06:56:22.075Z,1001.83
2022-11-03T06:57:22.079Z,1001.8
2022-11-03T06:58:22.070Z,1001.84
2022-11-03T06:59:22.267Z,1001.82
2022-11-03T07:00:35.046Z,1001.81
2022-11-03T07:01:22.144Z,1001.81
2022-11-03T07:02:22.179Z,1001.63
2022-11-03T07:03:22.039Z,1001.75
2022-11-03T07:04:22.034Z,1001.75
2022-11-03T07:05:22.056Z,1001.72
2022-11-03T07:06:22.066Z,1001.72
2022-11-03T07:07:22.044Z,1001.72
2022-11-03T07:08:22.059Z,1001.75
2022-11-03T07:09:22.047Z,1001.74
2022-11-03T07:10:22.096Z,1001.74
2022-11-03T07:11:22.128Z,1001.76
2022-11-03T07:12:22.028Z,1001.75
2022-11-03T07:13:22.052Z,1001.73
2022-11-03T07:14:22.057Z,1001.77
2022-11-03T07:15:22.042Z,1001.66
2022-11-03T07:16:22.047Z,1001.66
2022-11-03T07:17:22.056Z,1001.6
2022-11-03T07:18:22.044Z,1001.59
2022-11-03T07:19:22.066Z,1001.57
2022-11-03T07:20:22.044Z,1001.61
2022-11-03T07:21:22.040Z,1001.54
2022-11-03T07:22:22.062Z,1001.54
2022-11-03T07:23:22.288Z,1001.4
2022-11-03T07:24:22.037Z,1001.43
2022-11-03T07:25:22.037Z,1001.49
2022-11-03T07:26:22.045Z,1001.5
2022-11-03T07:27:22.045Z,1001.43
2022-11-03T07:28:22.041Z,1001.5
2022-11-03T07:29:22.065Z,1001.52
2022-11-03T07:30:22.060Z,1001.5
2022-11-03T07:31:22.095Z,1001.41
2022-11-03T07:32:22.182Z,1001.42
2022-11-03T07:33:22.070Z,1001.44
2022-11-03T07:34:22.067Z,1001.48
2022-11-03T07:35:22.051Z,1001.39
2022-11-03T07:36:22.339Z,1001.43
2022-11-03T07:37:22.039Z,1001.45
2022-11-03T07:38:22.065Z,1001.35
2022-11-03T07:39:22.049Z,1001.38
2022-11-03T07:40:22.093Z,1001.36
2022-11-03T07:41:22.049Z,1001.33
2022-11-03T07:42:22.054Z,1001.36
2022-11-03T07:43:22.067Z,1001.29
2022-11-03T07:44:22.042Z,1001.34
2022-11-03T07:45:22.078Z,1001.26
2022-11-03T07:46:22.051Z,1001.25
2022-11-03T07:47:22.170Z,1001.18
2022-11-03T07:48:22.164Z,1001.19
2022-11-03T07:49:22.424Z,1001.14
2022-11-03T07:50:22.072Z,1001.12
2022-11-03T07:51:22.343Z,1001.12
2022-11-03T07:52:22.275Z,1001.05
2022-11-03T07:53:28.687Z,1000.97
2022-11-03T07:54:22.224Z,1000.87
2022-11-03T07:55:22.505Z,1000.88
2022-11-03T07:56:24.071Z,1000.8
2022-11-03T07:57:22.660Z,1000.8
2022-11-03T07:58:22.904Z,1000.79
2022-11-03T08:00:22.039Z,1000.8
2022-11-03T08:01:23.566Z,1000.81
2022-11-03T08:02:22.623Z,1000.78
2022-11-03T08:03:22.850Z,1000.72
2022-11-03T08:04:22.150Z,1000.72
2022-11-03T08:05:22.137Z,1000.64
2022-11-03T08:06:24.040Z,1000.67
2022-11-03T08:07:23.063Z,1000.61
2022-11-03T08:08:22.359Z,1000.61
2022-11-03T08:09:22.742Z,1000.64
2022-11-03T08:10:23.550Z,1000.65
2022-11-03T08:11:30.873Z,1000.65
2022-11-03T08:12:22.356Z,1000.62
2022-11-03T08:13:22.577Z,1000.58
2022-11-03T08:14:22.053Z,1000.58
2022-11-03T08:15:22.303Z,1000.55
2022-11-03T08:16:22.082Z,1000.62
2022-11-03T08:17:22.064Z,1000.66
2022-11-03T08:18:22.053Z,1000.7
2022-11-03T08:19:22.048Z,1000.59
2022-11-03T08:20:22.167Z,1000.65
2022-11-03T08:21:22.325Z,1000.66
2022-11-03T08:22:22.043Z,1000.64
2022-11-03T08:23:28.372Z,1000.67
2022-11-03T08:24:22.084Z,1000.61
2022-11-03T08:25:22.040Z,1000.64
2022-11-03T08:26:22.039Z,1000.63
2022-11-03T08:27:22.056Z,1000.67
2022-11-03T08:28:22.059Z,1000.67
2022-11-03T08:29:22.063Z,1000.68
2022-11-03T08:30:22.177Z,1000.67
2022-11-03T08:31:22.069Z,1000.62
2022-11-03T08:32:22.062Z,1000.67
2022-11-03T08:33:22.097Z,1000.6
2022-11-03T08:34:22.060Z,1000.63
2022-11-03T08:35:22.045Z,1000.56
2022-11-03T08:36:22.038Z,1000.54
2022-11-03T08:37:22.040Z,1000.52
2022-11-03T08:38:22.082Z,1000.46
2022-11-03T08:39:22.050Z,1000.46
2022-11-03T08:40:22.052Z,1000.46
2022-11-03T08:41:22.052Z,1000.45
2022-11-03T08:42:22.167Z,1000.46
2022-11-03T08:43:22.082Z,1000.42
2022-11-03T08:44:22.069Z,1000.42
2022-11-03T08:45:22.063Z,1000.43
2022-11-03T08:46:22.127Z,1000.41
2022-11-03T08:47:22.045Z,1000.39
2022-11-03T08:48:22.077Z,1000.38
2022-11-03T08:49:22.046Z,1000.36
2022-11-03T08:50:22.062Z,1000.39
2022-11-03T08:51:22.071Z,1000.39
2022-11-03T08:52:22.052Z,1000.36
2022-11-03T08:53:22.078Z,1000.27
2022-11-03T08:54:22.055Z,1000.34
2022-11-03T08:55:22.052Z,1000.33
2022-11-03T08:56:25.055Z,1000.28
2022-11-03T08:57:22.201Z,1000.28
2022-11-03T08:58:22.069Z,1000.26
2022-11-03T08:59:22.049Z,1000.25
2022-11-03T09:00:22.072Z,1000.22
2022-11-03T09:01:22.094Z,1000.18
2022-11-03T09:02:22.111Z,1000.16
2022-11-03T09:03:22.113Z,1000.25
2022-11-03T09:04:22.326Z,1000.17
2022-11-03T09:05:22.144Z,1000.24
2022-11-03T09:06:22.252Z,1000.24
2022-11-03T09:07:24.180Z,1000.23
2022-11-03T09:10:33.386Z,1000.26
2022-11-03T09:11:22.057Z,1000.3
2022-11-03T09:12:22.048Z,1000.29
2022-11-03T09:13:22.074Z,1000.3
2022-11-03T09:14:22.123Z,1000.3
2022-11-03T09:15:22.044Z,1000.32
2022-11-03T09:16:22.054Z,1000.28
2022-11-03T09:17:22.055Z,1000.32
2022-11-03T09:18:22.050Z,1000.28
2022-11-03T09:19:22.051Z,1000.21
2022-11-03T09:20:22.099Z,1000.23
2022-11-03T09:21:22.052Z,1000.23
2022-11-03T09:22:22.070Z,1000.26
2022-11-03T09:23:22.048Z,1000.23
2022-11-03T09:24:22.046Z,1000.17
2022-11-03T09:25:22.048Z,1000.18
2022-11-03T09:26:22.043Z,1000.13
2022-11-03T09:27:22.105Z,1000.15
2022-11-03T09:28:22.065Z,1000.07
2022-11-03T09:29:22.054Z,1000.09
2022-11-03T09:30:22.139Z,1000.07
2022-11-03T09:31:22.030Z,1000.06
2022-11-03T09:32:25.190Z,1000.04
2022-11-03T09:33:22.054Z,999.99
2022-11-03T09:34:22.101Z,999.97
2022-11-03T09:35:22.070Z,999.95
2022-11-03T09:36:22.054Z,999.92
2022-11-03T09:37:22.061Z,999.91
2022-11-03T09:38:22.050Z,999.88
2022-11-03T09:39:22.054Z,999.89
2022-11-03T09:40:22.306Z,999.93
2022-11-03T09:41:52.252Z,999.87
2022-11-03T09:42:22.048Z,999.89
2022-11-03T09:43:22.228Z,999.86
2022-11-03T09:44:22.038Z,999.83
2022-11-03T09:45:22.064Z,999.84
2022-11-03T09:46:22.087Z,999.78
2022-11-03T09:47:22.440Z,999.76
2022-11-03T09:48:22.060Z,999.77
2022-11-03T09:49:22.051Z,999.82
2022-11-03T09:50:22.457Z,999.78
2022-11-03T09:51:22.049Z,999.74
2022-11-03T09:52:22.046Z,999.79
2022-11-03T09:53:22.250Z,999.81
2022-11-03T09:54:22.537Z,999.8
2022-11-03T09:55:22.054Z,999.73
2022-11-03T09:56:22.048Z,999.72
2022-11-03T09:57:22.360Z,999.69
2022-11-03T09:58:22.098Z,999.65
2022-11-03T09:59:22.037Z,999.65
2022-11-03T10:00:22.289Z,999.64
2022-11-03T10:01:22.631Z,999.66
2022-11-03T10:02:22.258Z,999.61
2022-11-03T10:03:22.209Z,999.62
2022-11-03T10:04:22.044Z,999.61
2022-11-03T10:05:22.029Z,999.61
2022-11-03T10:06:22.097Z,999.63
2022-11-03T10:07:22.330Z,999.58
2022-11-03T10:08:25.089Z,999.6
2022-11-03T10:09:22.055Z,999.59
2022-11-03T10:10:22.047Z,999.53
2022-11-03T10:11:22.054Z,999.5
2022-11-03T10:12:22.051Z,999.5
2022-11-03T10:13:22.148Z,999.48
2022-11-03T10:14:22.043Z,999.46
2022-11-03T10:15:22.043Z,999.39
2022-11-03T10:16:22.048Z,999.39
2022-11-03T10:17:22.046Z,999.33
2022-11-03T10:18:22.046Z,999.31
2022-11-03T10:19:22.094Z,999.28
2022-11-03T10:20:22.068Z,999.29
2022-11-03T10:21:22.057Z,999.26
2022-11-03T10:22:22.182Z,999.18
2022-11-03T10:23:22.061Z,999.2
2022-11-03T10:24:22.060Z,999.22
2022-11-03T10:25:22.082Z,999.2
2022-11-03T10:26:22.031Z,999.15
2022-11-03T10:27:22.036Z,999.14
2022-11-03T10:28:22.065Z,999.1
2022-11-03T10:29:23.081Z,999.06
2022-11-03T10:30:22.073Z,998.99
2022-11-03T10:31:22.048Z,999.02
2022-11-03T10:32:22.057Z,998.92
2022-11-03T10:33:22.052Z,998.91
2022-11-03T10:34:22.059Z,998.92
2022-11-03T10:35:22.077Z,998.94
2022-11-03T10:36:22.084Z,998.9
2022-11-03T10:37:22.052Z,998.88
2022-11-03T10:38:22.047Z,998.81
2022-11-03T10:39:22.041Z,998.79
2022-11-03T10:40:47.123Z,998.81
2022-11-03T10:41:22.060Z,998.79
2022-11-03T10:42:22.037Z,998.72
2022-11-03T10:43:22.055Z,998.77
2022-11-03T10:44:22.053Z,998.68
2022-11-03T10:45:22.069Z,998.7
2022-11-03T10:46:50.462Z,998.64
2022-11-03T10:47:22.042Z,998.62
2022-11-03T10:48:22.141Z,998.66
2022-11-03T10:49:22.135Z,998.61
2022-11-03T10:50:22.046Z,998.7
2022-11-03T10:51:22.043Z,998.64
2022-11-03T10:52:22.091Z,998.69
2022-11-03T10:53:22.106Z,998.62
2022-11-03T10:54:22.216Z,998.64
2022-11-03T10:55:28.718Z,998.55
2022-11-03T10:56:22.273Z,998.58
2022-11-03T10:57:22.376Z,998.54
2022-11-03T10:58:22.056Z,998.54
2022-11-03T10:59:22.267Z,998.54
2022-11-03T11:00:22.111Z,998.55
2022-11-03T11:01:22.625Z,998.46
2022-11-03T11:02:22.265Z,998.42
2022-11-03T11:03:25.773Z,998.45
2022-11-03T11:04:22.217Z,998.34
2022-11-03T11:05:22.091Z,998.35
2022-11-03T11:06:22.262Z,998.27
2022-11-03T11:07:22.046Z,998.22
2022-11-03T11:08:22.396Z,998.16
2022-11-03T11:09:22.647Z,998.08
2022-11-03T11:10:22.914Z,997.92
2022-11-03T11:11:22.147Z,997.85
2022-11-03T11:12:22.655Z,997.87
2022-11-03T11:13:22.130Z,997.86
2022-11-03T11:14:23.467Z,997.78
2022-11-03T11:15:22.817Z,997.72
2022-11-03T11:16:22.710Z,997.75
2022-11-03T11:17:22.297Z,997.69
2022-11-03T11:18:23.278Z,997.59
2022-11-03T11:19:22.940Z,997.56
2022-11-03T11:20:23.215Z,997.56
2022-11-03T11:21:22.523Z,997.55
2022-11-03T11:22:22.951Z,997.57
2022-11-03T11:23:21.906Z,997.54
2022-11-03T11:24:22.153Z,997.57
2022-11-03T11:25:22.438Z,997.69
2022-11-03T11:26:22.733Z,997.6
2022-11-03T11:27:22.104Z,997.64
2022-11-03T11:28:22.371Z,997.59
2022-11-03T11:29:22.034Z,997.56
2022-11-03T11:30:22.055Z,997.53
2022-11-03T11:31:22.063Z,997.62
2022-11-03T11:32:22.055Z,997.59
2022-11-03T11:33:22.219Z,997.56
2022-11-03T11:34:22.040Z,997.51
2022-11-03T11:35:22.045Z,997.51
2022-11-03T11:36:22.055Z,997.52
2022-11-03T11:37:22.032Z,997.52
2022-11-03T11:38:22.084Z,997.48
2022-11-03T11:39:22.046Z,997.52
2022-11-03T11:40:22.162Z,997.53
2022-11-03T11:41:22.052Z,997.57
2022-11-03T11:42:22.080Z,997.58
2022-11-03T11:43:22.081Z,997.56
2022-11-03T11:44:22.189Z,997.56
2022-11-03T11:45:22.080Z,997.5
2022-11-03T11:46:22.059Z,997.48
2022-11-03T11:47:22.052Z,997.44
2022-11-03T11:48:22.053Z,997.36
2022-11-03T11:49:22.055Z,997.29
2022-11-03T11:50:22.089Z,997.23
2022-11-03T11:51:22.048Z,997.15
2022-11-03T11:52:22.033Z,997.1
2022-11-03T11:53:23.997Z,997.02
2022-11-03T11:54:22.141Z,997.07
2022-11-03T11:55:22.134Z,997.04
2022-11-03T11:56:22.046Z,996.97
2022-11-03T11:57:22.047Z,996.93
2022-11-03T11:58:22.058Z,996.9
2022-11-03T11:59:27.196Z,996.96
2022-11-03T12:00:22.064Z,996.99
2022-11-03T12:01:22.141Z,996.96
2022-11-03T12:02:22.060Z,997.06
2022-11-03T12:03:22.086Z,997.02
2022-11-03T12:04:22.161Z,996.94
2022-11-03T12:05:22.083Z,996.92
2022-11-03T12:06:22.091Z,996.86
2022-11-03T12:07:22.140Z,996.87
2022-11-03T12:08:22.049Z,996.95
2022-11-03T12:09:22.037Z,996.95
2022-11-03T12:10:22.055Z,996.94
2022-11-03T12:11:22.073Z,996.91
2022-11-03T12:12:22.040Z,996.85
2022-11-03T12:13:22.063Z,996.79
2022-11-03T12:14:22.040Z,996.77
2022-11-03T12:15:22.087Z,996.75